sensor_id;sensor_type;location;lat;lon;timestamp;P1;durP1;ratioP1;P2;durP2;ratioP2
20379;SDS011;10349;48.666;8.948;2023-06-22T00:02:08;9.37;;;7.73;;
20379;SDS011;10349;48.666;8.948;2023-06-22T00:04:34;9.80;;;8.40;;
20379;SDS011;10349;48.666;8.948;2023-06-22T00:06:59;8.07;;;7.37;;
20379;SDS011;10349;48.666;8.948;2023-06-22T00:09:25;8.57;;;7.73;;
20379;SDS011;10349;48.666;8.948;2023-06-22T00:11:51;9.03;;;8.10;;
20379;SDS011;10349;48.666;8.948;2023-06-22T00:14:17;8.53;;;7.67;;
20379;SDS011;10349;48.666;8.948;2023-06-22T00:16:42;9.43;;;8.43;;
20379;SDS011;10349;48.666;8.948;2023-06-22T00:19:08;9.33;;;8.37;;
20379;SDS011;10349;48.666;8.948;2023-06-22T00:21:36;8.37;;;7.47;;
20379;SDS011;10349;48.666;8.948;2023-06-22T00:24:03;9.23;;;7.40;;
20379;SDS011;10349;48.666;8.948;2023-06-22T00:26:29;9.40;;;8.10;;
20379;SDS011;10349;48.666;8.948;2023-06-22T00:28:55;8.30;;;7.50;;
20379;SDS011;10349;48.666;8.948;2023-06-22T00:31:21;8.50;;;7.70;;
20379;SDS011;10349;48.666;8.948;2023-06-22T00:33:47;9.63;;;8.10;;
20379;SDS011;10349;48.666;8.948;2023-06-22T00:36:15;8.70;;;7.90;;
20379;SDS011;10349;48.666;8.948;2023-06-22T00:38:42;7.27;;;6.63;;
20379;SDS011;10349;48.666;8.948;2023-06-22T00:41:08;9.80;;;8.87;;
20379;SDS011;10349;48.666;8.948;2023-06-22T00:43:34;12.90;;;7.60;;
20379;SDS011;10349;48.666;8.948;2023-06-22T00:46:02;9.13;;;8.10;;
20379;SDS011;10349;48.666;8.948;2023-06-22T00:48:28;10.57;;;7.80;;
20379;SDS011;10349;48.666;8.948;2023-06-22T00:50:54;13.33;;;8.53;;
20379;SDS011;10349;48.666;8.948;2023-06-22T00:53:22;14.00;;;8.10;;
20379;SDS011;10349;48.666;8.948;2023-06-22T00:55:48;12.70;;;8.23;;
20379;SDS011;10349;48.666;8.948;2023-06-22T00:58:16;11.23;;;8.20;;
20379;SDS011;10349;48.666;8.948;2023-06-22T01:00:46;11.83;;;8.97;;
20379;SDS011;10349;48.666;8.948;2023-06-22T01:03:13;11.60;;;8.63;;
20379;SDS011;10349;48.666;8.948;2023-06-22T01:05:39;8.07;;;7.00;;
20379;SDS011;10349;48.666;8.948;2023-06-22T01:08:12;11.73;;;8.83;;
20379;SDS011;10349;48.666;8.948;2023-06-22T01:11:16;11.10;;;8.00;;
20379;SDS011;10349;48.666;8.948;2023-06-22T01:16:34;9.57;;;8.23;;
20379;SDS011;10349;48.666;8.948;2023-06-22T01:19:13;9.23;;;8.33;;
20379;SDS011;10349;48.666;8.948;2023-06-22T01:22:02;10.50;;;8.10;;
20379;SDS011;10349;48.666;8.948;2023-06-22T01:24:33;12.33;;;8.87;;
20379;SDS011;10349;48.666;8.948;2023-06-22T01:27:18;8.97;;;7.47;;
20379;SDS011;10349;48.666;8.948;2023-06-22T01:29:52;12.50;;;8.67;;
20379;SDS011;10349;48.666;8.948;2023-06-22T01:32:29;15.90;;;9.30;;
20379;SDS011;10349;48.666;8.948;2023-06-22T01:34:58;7.73;;;7.00;;
20379;SDS011;10349;48.666;8.948;2023-06-22T01:37:27;9.37;;;7.60;;
20379;SDS011;10349;48.666;8.948;2023-06-22T01:39:53;12.73;;;8.50;;
20379;SDS011;10349;48.666;8.948;2023-06-22T01:42:22;7.37;;;6.67;;
20379;SDS011;10349;48.666;8.948;2023-06-22T01:44:49;7.80;;;7.00;;
20379;SDS011;10349;48.666;8.948;2023-06-22T01:47:17;10.80;;;9.00;;
20379;SDS011;10349;48.666;8.948;2023-06-22T01:49:43;10.07;;;7.83;;
20379;SDS011;10349;48.666;8.948;2023-06-22T01:52:09;8.37;;;7.53;;
20379;SDS011;10349;48.666;8.948;2023-06-22T01:54:34;10.33;;;9.20;;
20379;SDS011;10349;48.666;8.948;2023-06-22T01:57:00;11.13;;;8.50;;
20379;SDS011;10349;48.666;8.948;2023-06-22T01:59:28;10.47;;;8.87;;
20379;SDS011;10349;48.666;8.948;2023-06-22T02:02:09;12.53;;;8.63;;
20379;SDS011;10349;48.666;8.948;2023-06-22T02:04:42;9.57;;;7.53;;
20379;SDS011;10349;48.666;8.948;2023-06-22T02:07:22;11.90;;;8.53;;
20379;SDS011;10349;48.666;8.948;2023-06-22T02:09:52;10.23;;;8.80;;
20379;SDS011;10349;48.666;8.948;2023-06-22T02:12:21;10.87;;;8.90;;
20379;SDS011;10349;48.666;8.948;2023-06-22T02:14:49;10.53;;;7.87;;
20379;SDS011;10349;48.666;8.948;2023-06-22T02:17:17;10.13;;;8.10;;
20379;SDS011;10349;48.666;8.948;2023-06-22T02:19:43;11.70;;;8.40;;
20379;SDS011;10349;48.666;8.948;2023-06-22T02:22:09;10.57;;;9.23;;
20379;SDS011;10349;48.666;8.948;2023-06-22T02:24:35;12.63;;;9.57;;
20379;SDS011;10349;48.666;8.948;2023-06-22T02:27:01;10.87;;;9.23;;
20379;SDS011;10349;48.666;8.948;2023-06-22T02:29:31;14.33;;;9.07;;
20379;SDS011;10349;48.666;8.948;2023-06-22T02:31:57;9.80;;;8.90;;
20379;SDS011;10349;48.666;8.948;2023-06-22T02:34:22;11.43;;;9.27;;
20379;SDS011;10349;48.666;8.948;2023-06-22T02:36:50;12.13;;;9.07;;
20379;SDS011;10349;48.666;8.948;2023-06-22T02:39:20;9.97;;;8.97;;
20379;SDS011;10349;48.666;8.948;2023-06-22T02:41:49;10.20;;;8.50;;
20379;SDS011;10349;48.666;8.948;2023-06-22T02:44:16;9.50;;;8.17;;
20379;SDS011;10349;48.666;8.948;2023-06-22T02:46:42;12.90;;;9.33;;
20379;SDS011;10349;48.666;8.948;2023-06-22T02:49:09;8.47;;;7.60;;
20379;SDS011;10349;48.666;8.948;2023-06-22T02:51:36;10.30;;;8.87;;
20379;SDS011;10349;48.666;8.948;2023-06-22T02:54:05;11.80;;;8.47;;
20379;SDS011;10349;48.666;8.948;2023-06-22T02:56:31;13.53;;;9.07;;
20379;SDS011;10349;48.666;8.948;2023-06-22T02:58:59;11.00;;;7.50;;
20379;SDS011;10349;48.666;8.948;2023-06-22T03:01:33;10.77;;;8.10;;
20379;SDS011;10349;48.666;8.948;2023-06-22T03:04:06;10.83;;;8.53;;
20379;SDS011;10349;48.666;8.948;2023-06-22T03:06:32;9.73;;;8.40;;
20379;SDS011;10349;48.666;8.948;2023-06-22T03:08:59;13.83;;;8.43;;
20379;SDS011;10349;48.666;8.948;2023-06-22T03:11:27;10.17;;;8.30;;
20379;SDS011;10349;48.666;8.948;2023-06-22T03:13:53;8.87;;;7.97;;
20379;SDS011;10349;48.666;8.948;2023-06-22T03:16:19;11.00;;;9.33;;
20379;SDS011;10349;48.666;8.948;2023-06-22T03:18:45;10.97;;;9.03;;
20379;SDS011;10349;48.666;8.948;2023-06-22T03:21:12;13.33;;;8.27;;
20379;SDS011;10349;48.666;8.948;2023-06-22T03:23:37;10.53;;;8.47;;
20379;SDS011;10349;48.666;8.948;2023-06-22T03:26:03;11.60;;;7.63;;
20379;SDS011;10349;48.666;8.948;2023-06-22T03:28:29;16.77;;;10.17;;
20379;SDS011;10349;48.666;8.948;2023-06-22T03:30:57;8.87;;;7.90;;
20379;SDS011;10349;48.666;8.948;2023-06-22T03:33:23;12.10;;;8.27;;
20379;SDS011;10349;48.666;8.948;2023-06-22T03:35:49;10.70;;;8.70;;
20379;SDS011;10349;48.666;8.948;2023-06-22T03:38:15;12.97;;;8.90;;
20379;SDS011;10349;48.666;8.948;2023-06-22T03:40:41;9.43;;;7.83;;
20379;SDS011;10349;48.666;8.948;2023-06-22T03:43:07;9.37;;;7.97;;
20379;SDS011;10349;48.666;8.948;2023-06-22T03:45:34;7.90;;;7.10;;
20379;SDS011;10349;48.666;8.948;2023-06-22T03:48:00;8.43;;;7.63;;
20379;SDS011;10349;48.666;8.948;2023-06-22T03:50:26;11.73;;;7.50;;
20379;SDS011;10349;48.666;8.948;2023-06-22T03:52:52;8.47;;;7.73;;
20379;SDS011;10349;48.666;8.948;2023-06-22T03:55:19;15.43;;;8.37;;
20379;SDS011;10349;48.666;8.948;2023-06-22T03:57:45;14.27;;;7.60;;
20379;SDS011;10349;48.666;8.948;2023-06-22T04:00:11;9.27;;;8.37;;
20379;SDS011;10349;48.666;8.948;2023-06-22T04:02:37;7.87;;;6.70;;
20379;SDS011;10349;48.666;8.948;2023-06-22T04:05:03;8.10;;;7.30;;
20379;SDS011;10349;48.666;8.948;2023-06-22T04:07:29;15.03;;;8.20;;
20379;SDS011;10349;48.666;8.948;2023-06-22T04:09:55;10.03;;;8.67;;
20379;SDS011;10349;48.666;8.948;2023-06-22T04:12:20;9.90;;;8.27;;
20379;SDS011;10349;48.666;8.948;2023-06-22T04:14:46;11.93;;;8.80;;
20379;SDS011;10349;48.666;8.948;2023-06-22T04:17:12;8.90;;;8.00;;
20379;SDS011;10349;48.666;8.948;2023-06-22T04:19:39;8.83;;;7.70;;
20379;SDS011;10349;48.666;8.948;2023-06-22T04:22:05;8.37;;;7.53;;
20379;SDS011;10349;48.666;8.948;2023-06-22T04:24:35;12.40;;;9.33;;
20379;SDS011;10349;48.666;8.948;2023-06-22T04:27:00;10.10;;;8.83;;
20379;SDS011;10349;48.666;8.948;2023-06-22T04:29:28;9.43;;;8.43;;
20379;SDS011;10349;48.666;8.948;2023-06-22T04:31:55;9.37;;;8.40;;
20379;SDS011;10349;48.666;8.948;2023-06-22T04:34:24;11.43;;;8.80;;
20379;SDS011;10349;48.666;8.948;2023-06-22T04:36:53;9.60;;;8.60;;
20379;SDS011;10349;48.666;8.948;2023-06-22T04:39:18;12.00;;;9.63;;
20379;SDS011;10349;48.666;8.948;2023-06-22T04:41:44;14.33;;;8.13;;
20379;SDS011;10349;48.666;8.948;2023-06-22T04:44:14;13.77;;;8.50;;
20379;SDS011;10349;48.666;8.948;2023-06-22T04:46:49;9.60;;;8.70;;
20379;SDS011;10349;48.666;8.948;2023-06-22T04:49:20;11.13;;;8.53;;
20379;SDS011;10349;48.666;8.948;2023-06-22T04:51:47;8.97;;;7.93;;
20379;SDS011;10349;48.666;8.948;2023-06-22T04:54:13;10.60;;;9.03;;
20379;SDS011;10349;48.666;8.948;2023-06-22T04:56:38;11.50;;;9.30;;
20379;SDS011;10349;48.666;8.948;2023-06-22T04:59:05;11.53;;;8.23;;
20379;SDS011;10349;48.666;8.948;2023-06-22T05:01:31;10.83;;;9.17;;
20379;SDS011;10349;48.666;8.948;2023-06-22T05:03:57;9.63;;;7.93;;
20379;SDS011;10349;48.666;8.948;2023-06-22T05:06:26;10.00;;;8.30;;
20379;SDS011;10349;48.666;8.948;2023-06-22T05:08:56;10.70;;;8.83;;
20379;SDS011;10349;48.666;8.948;2023-06-22T05:11:26;10.10;;;9.20;;
20379;SDS011;10349;48.666;8.948;2023-06-22T05:13:52;12.00;;;8.00;;
20379;SDS011;10349;48.666;8.948;2023-06-22T05:16:18;10.03;;;8.20;;
20379;SDS011;10349;48.666;8.948;2023-06-22T05:18:52;9.90;;;8.47;;
20379;SDS011;10349;48.666;8.948;2023-06-22T05:21:22;12.50;;;9.20;;
20379;SDS011;10349;48.666;8.948;2023-06-22T05:23:51;11.50;;;9.90;;
20379;SDS011;10349;48.666;8.948;2023-06-22T05:26:19;11.07;;;7.97;;
20379;SDS011;10349;48.666;8.948;2023-06-22T05:28:45;8.70;;;7.50;;
20379;SDS011;10349;48.666;8.948;2023-06-22T05:31:12;9.73;;;7.87;;
20379;SDS011;10349;48.666;8.948;2023-06-22T05:33:42;9.40;;;7.87;;
20379;SDS011;10349;48.666;8.948;2023-06-22T05:36:09;8.10;;;7.40;;
20379;SDS011;10349;48.666;8.948;2023-06-22T05:38:35;12.23;;;8.70;;
20379;SDS011;10349;48.666;8.948;2023-06-22T05:41:01;15.07;;;9.00;;
20379;SDS011;10349;48.666;8.948;2023-06-22T05:43:27;14.40;;;8.47;;
20379;SDS011;10349;48.666;8.948;2023-06-22T05:45:53;9.33;;;7.20;;
20379;SDS011;10349;48.666;8.948;2023-06-22T05:48:19;8.00;;;7.20;;
20379;SDS011;10349;48.666;8.948;2023-06-22T05:50:45;7.23;;;6.53;;
20379;SDS011;10349;48.666;8.948;2023-06-22T05:53:10;10.37;;;5.93;;
20379;SDS011;10349;48.666;8.948;2023-06-22T05:55:36;7.77;;;6.13;;
20379;SDS011;10349;48.666;8.948;2023-06-22T05:58:02;7.10;;;6.00;;
20379;SDS011;10349;48.666;8.948;2023-06-22T06:00:30;7.93;;;6.37;;
20379;SDS011;10349;48.666;8.948;2023-06-22T06:02:56;5.20;;;4.80;;
20379;SDS011;10349;48.666;8.948;2023-06-22T06:05:22;6.00;;;5.50;;
20379;SDS011;10349;48.666;8.948;2023-06-22T06:07:49;6.37;;;5.77;;
20379;SDS011;10349;48.666;8.948;2023-06-22T06:10:14;8.33;;;5.17;;
20379;SDS011;10349;48.666;8.948;2023-06-22T06:12:40;6.83;;;5.60;;
20379;SDS011;10349;48.666;8.948;2023-06-22T06:15:06;8.03;;;5.60;;
20379;SDS011;10349;48.666;8.948;2023-06-22T06:17:32;5.80;;;4.70;;
20379;SDS011;10349;48.666;8.948;2023-06-22T06:20:01;6.97;;;6.03;;
20379;SDS011;10349;48.666;8.948;2023-06-22T06:22:28;6.43;;;4.60;;
20379;SDS011;10349;48.666;8.948;2023-06-22T06:24:54;4.90;;;4.60;;
20379;SDS011;10349;48.666;8.948;2023-06-22T06:27:19;5.17;;;4.77;;
20379;SDS011;10349;48.666;8.948;2023-06-22T06:29:45;8.33;;;4.70;;
20379;SDS011;10349;48.666;8.948;2023-06-22T06:32:13;5.30;;;4.90;;
20379;SDS011;10349;48.666;8.948;2023-06-22T06:34:38;5.20;;;4.40;;
20379;SDS011;10349;48.666;8.948;2023-06-22T06:37:06;4.37;;;4.07;;
20379;SDS011;10349;48.666;8.948;2023-06-22T06:39:32;5.30;;;4.80;;
20379;SDS011;10349;48.666;8.948;2023-06-22T06:41:57;4.43;;;4.07;;
20379;SDS011;10349;48.666;8.948;2023-06-22T06:44:23;5.20;;;4.70;;
20379;SDS011;10349;48.666;8.948;2023-06-22T06:46:49;5.50;;;5.00;;
20379;SDS011;10349;48.666;8.948;2023-06-22T06:49:15;4.67;;;4.20;;
20379;SDS011;10349;48.666;8.948;2023-06-22T06:51:40;5.23;;;4.40;;
20379;SDS011;10349;48.666;8.948;2023-06-22T06:54:06;5.80;;;4.63;;
20379;SDS011;10349;48.666;8.948;2023-06-22T06:56:32;4.43;;;4.03;;
20379;SDS011;10349;48.666;8.948;2023-06-22T06:58:58;9.43;;;5.00;;
20379;SDS011;10349;48.666;8.948;2023-06-22T07:01:24;5.40;;;4.90;;
20379;SDS011;10349;48.666;8.948;2023-06-22T07:03:49;6.50;;;4.30;;
20379;SDS011;10349;48.666;8.948;2023-06-22T07:06:15;7.77;;;5.03;;
20379;SDS011;10349;48.666;8.948;2023-06-22T07:08:41;5.27;;;4.67;;
20379;SDS011;10349;48.666;8.948;2023-06-22T07:11:08;4.57;;;4.27;;
20379;SDS011;10349;48.666;8.948;2023-06-22T07:13:33;3.90;;;3.60;;
20379;SDS011;10349;48.666;8.948;2023-06-22T07:15:59;6.87;;;4.60;;
20379;SDS011;10349;48.666;8.948;2023-06-22T07:18:25;7.73;;;4.53;;
20379;SDS011;10349;48.666;8.948;2023-06-22T07:20:51;5.63;;;4.97;;
20379;SDS011;10349;48.666;8.948;2023-06-22T07:23:17;5.67;;;4.47;;
20379;SDS011;10349;48.666;8.948;2023-06-22T07:25:43;5.93;;;4.30;;
20379;SDS011;10349;48.666;8.948;2023-06-22T07:28:08;4.20;;;3.90;;
20379;SDS011;10349;48.666;8.948;2023-06-22T07:30:34;4.70;;;4.30;;
20379;SDS011;10349;48.666;8.948;2023-06-22T07:33:00;5.23;;;4.83;;
20379;SDS011;10349;48.666;8.948;2023-06-22T07:35:32;5.57;;;5.03;;
20379;SDS011;10349;48.666;8.948;2023-06-22T07:37:58;6.77;;;4.70;;
20379;SDS011;10349;48.666;8.948;2023-06-22T07:40:24;7.13;;;4.43;;
20379;SDS011;10349;48.666;8.948;2023-06-22T07:42:50;5.63;;;5.07;;
20379;SDS011;10349;48.666;8.948;2023-06-22T07:45:17;5.33;;;4.40;;
20379;SDS011;10349;48.666;8.948;2023-06-22T07:47:43;9.37;;;4.70;;
20379;SDS011;10349;48.666;8.948;2023-06-22T07:50:09;5.50;;;5.10;;
20379;SDS011;10349;48.666;8.948;2023-06-22T07:52:35;5.10;;;3.37;;
20379;SDS011;10349;48.666;8.948;2023-06-22T07:55:01;6.37;;;5.10;;
20379;SDS011;10349;48.666;8.948;2023-06-22T07:57:27;7.60;;;4.90;;
20379;SDS011;10349;48.666;8.948;2023-06-22T07:59:57;5.40;;;4.90;;
20379;SDS011;10349;48.666;8.948;2023-06-22T08:02:24;4.73;;;4.43;;
20379;SDS011;10349;48.666;8.948;2023-06-22T08:04:49;5.53;;;5.13;;
20379;SDS011;10349;48.666;8.948;2023-06-22T08:07:15;6.20;;;5.60;;
20379;SDS011;10349;48.666;8.948;2023-06-22T08:09:45;5.13;;;4.73;;
20379;SDS011;10349;48.666;8.948;2023-06-22T08:12:12;6.87;;;4.97;;
20379;SDS011;10349;48.666;8.948;2023-06-22T08:14:38;5.90;;;5.30;;
20379;SDS011;10349;48.666;8.948;2023-06-22T08:17:04;5.00;;;4.50;;
20379;SDS011;10349;48.666;8.948;2023-06-22T08:19:30;6.27;;;5.60;;
20379;SDS011;10349;48.666;8.948;2023-06-22T08:21:56;8.60;;;5.73;;
20379;SDS011;10349;48.666;8.948;2023-06-22T08:24:22;8.93;;;5.50;;
20379;SDS011;10349;48.666;8.948;2023-06-22T08:26:51;5.93;;;5.00;;
20379;SDS011;10349;48.666;8.948;2023-06-22T08:29:16;5.87;;;5.33;;
20379;SDS011;10349;48.666;8.948;2023-06-22T08:31:42;9.47;;;5.50;;
20379;SDS011;10349;48.666;8.948;2023-06-22T08:34:08;8.30;;;5.20;;
20379;SDS011;10349;48.666;8.948;2023-06-22T08:36:33;7.27;;;5.67;;
20379;SDS011;10349;48.666;8.948;2023-06-22T08:39:06;10.37;;;5.23;;
20379;SDS011;10349;48.666;8.948;2023-06-22T08:41:33;5.53;;;5.00;;
20379;SDS011;10349;48.666;8.948;2023-06-22T08:43:59;5.90;;;5.40;;
20379;SDS011;10349;48.666;8.948;2023-06-22T08:46:24;5.67;;;5.27;;
20379;SDS011;10349;48.666;8.948;2023-06-22T08:48:55;5.50;;;5.00;;
20379;SDS011;10349;48.666;8.948;2023-06-22T08:51:22;9.33;;;6.10;;
20379;SDS011;10349;48.666;8.948;2023-06-22T08:53:48;7.60;;;5.67;;
20379;SDS011;10349;48.666;8.948;2023-06-22T08:56:14;9.03;;;5.57;;
20379;SDS011;10349;48.666;8.948;2023-06-22T08:58:40;5.73;;;5.23;;
20379;SDS011;10349;48.666;8.948;2023-06-22T09:01:05;5.07;;;4.63;;
20379;SDS011;10349;48.666;8.948;2023-06-22T09:03:31;7.50;;;5.03;;
20379;SDS011;10349;48.666;8.948;2023-06-22T09:05:58;6.37;;;5.27;;
20379;SDS011;10349;48.666;8.948;2023-06-22T09:08:24;6.20;;;5.60;;
20379;SDS011;10349;48.666;8.948;2023-06-22T09:10:49;6.67;;;6.10;;
20379;SDS011;10349;48.666;8.948;2023-06-22T09:13:15;5.47;;;4.63;;
20379;SDS011;10349;48.666;8.948;2023-06-22T09:15:41;7.63;;;5.53;;
20379;SDS011;10349;48.666;8.948;2023-06-22T09:18:06;6.80;;;5.37;;
20379;SDS011;10349;48.666;8.948;2023-06-22T09:20:36;6.57;;;6.00;;
20379;SDS011;10349;48.666;8.948;2023-06-22T09:23:02;6.80;;;5.47;;
20379;SDS011;10349;48.666;8.948;2023-06-22T09:25:27;6.27;;;5.40;;
20379;SDS011;10349;48.666;8.948;2023-06-22T09:27:53;8.90;;;5.40;;
20379;SDS011;10349;48.666;8.948;2023-06-22T09:30:18;5.90;;;5.30;;
20379;SDS011;10349;48.666;8.948;2023-06-22T09:32:44;5.70;;;5.20;;
20379;SDS011;10349;48.666;8.948;2023-06-22T09:35:10;8.73;;;5.53;;
20379;SDS011;10349;48.666;8.948;2023-06-22T09:37:38;4.80;;;4.20;;
20379;SDS011;10349;48.666;8.948;2023-06-22T09:40:03;15.60;;;5.93;;
20379;SDS011;10349;48.666;8.948;2023-06-22T09:42:35;5.37;;;4.93;;
20379;SDS011;10349;48.666;8.948;2023-06-22T09:45:00;8.77;;;5.90;;
20379;SDS011;10349;48.666;8.948;2023-06-22T09:47:26;5.77;;;5.03;;
20379;SDS011;10349;48.666;8.948;2023-06-22T09:49:53;7.93;;;5.33;;
20379;SDS011;10349;48.666;8.948;2023-06-22T09:52:20;6.60;;;5.87;;
20379;SDS011;10349;48.666;8.948;2023-06-22T09:54:46;7.47;;;5.83;;
20379;SDS011;10349;48.666;8.948;2023-06-22T09:57:12;5.87;;;5.33;;
20379;SDS011;10349;48.666;8.948;2023-06-22T09:59:38;8.60;;;6.57;;
20379;SDS011;10349;48.666;8.948;2023-06-22T10:02:07;6.20;;;5.37;;
20379;SDS011;10349;48.666;8.948;2023-06-22T10:04:36;6.53;;;5.87;;
20379;SDS011;10349;48.666;8.948;2023-06-22T10:07:02;6.87;;;5.90;;
20379;SDS011;10349;48.666;8.948;2023-06-22T10:09:28;6.43;;;5.13;;
20379;SDS011;10349;48.666;8.948;2023-06-22T10:11:54;5.97;;;5.20;;
20379;SDS011;10349;48.666;8.948;2023-06-22T10:14:19;6.67;;;5.37;;
20379;SDS011;10349;48.666;8.948;2023-06-22T10:16:45;8.30;;;5.53;;
20379;SDS011;10349;48.666;8.948;2023-06-22T10:19:11;6.50;;;5.90;;
20379;SDS011;10349;48.666;8.948;2023-06-22T10:21:37;6.10;;;5.37;;
20379;SDS011;10349;48.666;8.948;2023-06-22T10:24:02;6.60;;;5.03;;
20379;SDS011;10349;48.666;8.948;2023-06-22T10:26:34;15.40;;;6.37;;
20379;SDS011;10349;48.666;8.948;2023-06-22T10:29:01;6.90;;;4.90;;
20379;SDS011;10349;48.666;8.948;2023-06-22T10:31:27;6.43;;;5.93;;
20379;SDS011;10349;48.666;8.948;2023-06-22T10:33:53;10.90;;;5.77;;
20379;SDS011;10349;48.666;8.948;2023-06-22T10:36:20;8.73;;;5.43;;
20379;SDS011;10349;48.666;8.948;2023-06-22T10:38:46;7.30;;;4.90;;
20379;SDS011;10349;48.666;8.948;2023-06-22T10:41:13;9.63;;;5.83;;
20379;SDS011;10349;48.666;8.948;2023-06-22T10:43:38;5.70;;;5.00;;
20379;SDS011;10349;48.666;8.948;2023-06-22T10:46:04;8.90;;;5.13;;
20379;SDS011;10349;48.666;8.948;2023-06-22T10:48:30;7.57;;;5.23;;
20379;SDS011;10349;48.666;8.948;2023-06-22T10:50:55;7.03;;;5.30;;
20379;SDS011;10349;48.666;8.948;2023-06-22T10:53:21;7.23;;;5.27;;
20379;SDS011;10349;48.666;8.948;2023-06-22T10:55:47;5.70;;;4.93;;
20379;SDS011;10349;48.666;8.948;2023-06-22T10:58:12;6.50;;;5.73;;
20379;SDS011;10349;48.666;8.948;2023-06-22T11:00:38;6.23;;;5.33;;
20379;SDS011;10349;48.666;8.948;2023-06-22T11:03:04;6.33;;;5.63;;
20379;SDS011;10349;48.666;8.948;2023-06-22T11:05:29;7.80;;;5.60;;
20379;SDS011;10349;48.666;8.948;2023-06-22T11:07:55;6.90;;;5.50;;
20379;SDS011;10349;48.666;8.948;2023-06-22T11:10:21;7.80;;;6.10;;
20379;SDS011;10349;48.666;8.948;2023-06-22T11:12:46;8.43;;;6.47;;
20379;SDS011;10349;48.666;8.948;2023-06-22T11:15:12;8.87;;;5.13;;
20379;SDS011;10349;48.666;8.948;2023-06-22T11:17:38;7.50;;;6.70;;
20379;SDS011;10349;48.666;8.948;2023-06-22T11:20:04;9.03;;;7.20;;
20379;SDS011;10349;48.666;8.948;2023-06-22T11:22:35;12.33;;;5.60;;
20379;SDS011;10349;48.666;8.948;2023-06-22T11:25:05;5.63;;;5.13;;
20379;SDS011;10349;48.666;8.948;2023-06-22T11:27:32;6.00;;;5.50;;
20379;SDS011;10349;48.666;8.948;2023-06-22T11:29:58;6.30;;;5.27;;
20379;SDS011;10349;48.666;8.948;2023-06-22T11:32:24;9.83;;;5.83;;
20379;SDS011;10349;48.666;8.948;2023-06-22T11:34:49;10.13;;;5.53;;
20379;SDS011;10349;48.666;8.948;2023-06-22T11:37:16;11.50;;;6.40;;
20379;SDS011;10349;48.666;8.948;2023-06-22T11:39:42;6.50;;;5.90;;
20379;SDS011;10349;48.666;8.948;2023-06-22T11:42:07;6.50;;;5.90;;
20379;SDS011;10349;48.666;8.948;2023-06-22T11:44:34;5.50;;;5.10;;
20379;SDS011;10349;48.666;8.948;2023-06-22T11:47:00;13.53;;;5.60;;
20379;SDS011;10349;48.666;8.948;2023-06-22T11:49:26;6.47;;;5.30;;
20379;SDS011;10349;48.666;8.948;2023-06-22T11:51:52;10.40;;;7.40;;
20379;SDS011;10349;48.666;8.948;2023-06-22T11:54:18;9.20;;;6.03;;
20379;SDS011;10349;48.666;8.948;2023-06-22T11:56:44;9.30;;;5.20;;
20379;SDS011;10349;48.666;8.948;2023-06-22T11:59:09;7.90;;;6.07;;
20379;SDS011;10349;48.666;8.948;2023-06-22T12:01:35;11.27;;;5.83;;
20379;SDS011;10349;48.666;8.948;2023-06-22T12:04:01;8.63;;;6.10;;
20379;SDS011;10349;48.666;8.948;2023-06-22T12:06:26;6.27;;;5.70;;
20379;SDS011;10349;48.666;8.948;2023-06-22T12:08:52;8.03;;;6.10;;
20379;SDS011;10349;48.666;8.948;2023-06-22T12:11:18;6.63;;;6.13;;
20379;SDS011;10349;48.666;8.948;2023-06-22T12:13:43;7.20;;;6.50;;
20379;SDS011;10349;48.666;8.948;2023-06-22T12:16:09;7.03;;;6.07;;
20379;SDS011;10349;48.666;8.948;2023-06-22T12:18:35;7.23;;;6.53;;
20379;SDS011;10349;48.666;8.948;2023-06-22T12:21:00;11.17;;;6.10;;
20379;SDS011;10349;48.666;8.948;2023-06-22T12:23:26;14.83;;;6.90;;
20379;SDS011;10349;48.666;8.948;2023-06-22T12:25:52;6.23;;;5.67;;
20379;SDS011;10349;48.666;8.948;2023-06-22T12:28:17;9.53;;;5.93;;
20379;SDS011;10349;48.666;8.948;2023-06-22T12:30:43;6.70;;;5.47;;
20379;SDS011;10349;48.666;8.948;2023-06-22T12:33:09;8.00;;;6.90;;
20379;SDS011;10349;48.666;8.948;2023-06-22T12:35:35;6.30;;;5.50;;
20379;SDS011;10349;48.666;8.948;2023-06-22T12:38:00;7.60;;;6.17;;
20379;SDS011;10349;48.666;8.948;2023-06-22T12:40:26;10.27;;;7.37;;
20379;SDS011;10349;48.666;8.948;2023-06-22T12:42:51;7.03;;;6.30;;
20379;SDS011;10349;48.666;8.948;2023-06-22T12:45:17;7.63;;;6.10;;
20379;SDS011;10349;48.666;8.948;2023-06-22T12:47:43;8.60;;;5.70;;
20379;SDS011;10349;48.666;8.948;2023-06-22T12:50:09;12.13;;;6.60;;
20379;SDS011;10349;48.666;8.948;2023-06-22T12:52:36;6.33;;;5.37;;
20379;SDS011;10349;48.666;8.948;2023-06-22T12:55:04;11.40;;;5.90;;
20379;SDS011;10349;48.666;8.948;2023-06-22T12:57:30;10.87;;;6.50;;
20379;SDS011;10349;48.666;8.948;2023-06-22T12:59:56;6.10;;;5.03;;
20379;SDS011;10349;48.666;8.948;2023-06-22T13:02:23;8.20;;;6.33;;
20379;SDS011;10349;48.666;8.948;2023-06-22T13:04:49;6.77;;;5.90;;
20379;SDS011;10349;48.666;8.948;2023-06-22T13:07:14;6.30;;;5.70;;
20379;SDS011;10349;48.666;8.948;2023-06-22T13:09:40;5.77;;;5.27;;
20379;SDS011;10349;48.666;8.948;2023-06-22T13:12:06;5.63;;;5.20;;
20379;SDS011;10349;48.666;8.948;2023-06-22T13:14:32;6.33;;;5.70;;
20379;SDS011;10349;48.666;8.948;2023-06-22T13:16:57;5.50;;;4.97;;
20379;SDS011;10349;48.666;8.948;2023-06-22T13:19:23;6.47;;;5.83;;
20379;SDS011;10349;48.666;8.948;2023-06-22T13:21:49;6.33;;;4.73;;
20379;SDS011;10349;48.666;8.948;2023-06-22T13:24:15;6.50;;;6.00;;
20379;SDS011;10349;48.666;8.948;2023-06-22T13:26:41;6.57;;;5.93;;
20379;SDS011;10349;48.666;8.948;2023-06-22T13:29:07;12.30;;;5.40;;
20379;SDS011;10349;48.666;8.948;2023-06-22T13:31:33;6.30;;;5.67;;
20379;SDS011;10349;48.666;8.948;2023-06-22T13:33:58;7.20;;;6.60;;
20379;SDS011;10349;48.666;8.948;2023-06-22T13:36:24;9.27;;;6.70;;
20379;SDS011;10349;48.666;8.948;2023-06-22T13:38:49;10.10;;;5.63;;
20379;SDS011;10349;48.666;8.948;2023-06-22T13:41:15;12.10;;;6.30;;
20379;SDS011;10349;48.666;8.948;2023-06-22T13:43:41;12.60;;;5.93;;
20379;SDS011;10349;48.666;8.948;2023-06-22T13:46:07;6.67;;;6.07;;
20379;SDS011;10349;48.666;8.948;2023-06-22T13:48:32;6.50;;;6.00;;
20379;SDS011;10349;48.666;8.948;2023-06-22T13:50:58;8.60;;;6.30;;
20379;SDS011;10349;48.666;8.948;2023-06-22T13:53:24;7.17;;;5.63;;
20379;SDS011;10349;48.666;8.948;2023-06-22T13:55:50;6.93;;;6.23;;
20379;SDS011;10349;48.666;8.948;2023-06-22T13:58:16;7.90;;;6.00;;
20379;SDS011;10349;48.666;8.948;2023-06-22T14:00:42;10.93;;;5.73;;
20379;SDS011;10349;48.666;8.948;2023-06-22T14:03:07;6.20;;;5.63;;
20379;SDS011;10349;48.666;8.948;2023-06-22T14:05:33;7.87;;;7.17;;
20379;SDS011;10349;48.666;8.948;2023-06-22T14:07:58;14.10;;;5.57;;
20379;SDS011;10349;48.666;8.948;2023-06-22T14:10:24;9.13;;;5.23;;
20379;SDS011;10349;48.666;8.948;2023-06-22T14:12:50;6.90;;;4.33;;
20379;SDS011;10349;48.666;8.948;2023-06-22T14:15:18;10.20;;;5.40;;
20379;SDS011;10349;48.666;8.948;2023-06-22T14:17:45;9.43;;;3.70;;
20379;SDS011;10349;48.666;8.948;2023-06-22T14:20:11;4.13;;;3.07;;
20379;SDS011;10349;48.666;8.948;2023-06-22T14:22:40;8.70;;;4.23;;
20379;SDS011;10349;48.666;8.948;2023-06-22T14:25:09;6.93;;;4.20;;
20379;SDS011;10349;48.666;8.948;2023-06-22T14:27:38;5.57;;;3.13;;
20379;SDS011;10349;48.666;8.948;2023-06-22T14:30:09;3.10;;;2.60;;
20379;SDS011;10349;48.666;8.948;2023-06-22T14:32:38;4.30;;;3.67;;
20379;SDS011;10349;48.666;8.948;2023-06-22T14:35:07;5.30;;;3.07;;
20379;SDS011;10349;48.666;8.948;2023-06-22T14:37:39;3.73;;;2.87;;
20379;SDS011;10349;48.666;8.948;2023-06-22T14:40:12;6.70;;;3.10;;
20379;SDS011;10349;48.666;8.948;2023-06-22T14:42:42;3.73;;;3.17;;
20379;SDS011;10349;48.666;8.948;2023-06-22T14:45:12;5.53;;;3.23;;